Time;durP1;ratioP1;P1;durP2;ratioP2;P2;SDS_P1;SDS_P2;PMS_P1;PMS_P2;Temp;Humidity;BMP_temperature;BMP_pressure;BME280_temperature;BME280_humidity;BME280_pressure;Samples;Min_cycle;Max_cycle;Signal;HPM_P1;HPM_P2
2022/03/15 00:00:03;;;;;;;7.65;3.75;;;;;;;;;;4999897;28;20026;-77
2022/03/15 00:02:28;;;;;;;9.15;3.42;;;;;;;;;;5000029;28;20056;-78
2022/03/15 00:04:55;;;;;;;7.43;3.60;;;;;;;;;;5017961;28;20470;-77
2022/03/15 00:07:21;;;;;;;6.53;3.40;;;;;;;;;;5018080;28;20026;-77
2022/03/15 00:09:46;;;;;;;7.03;3.47;;;;;;;;;;5000791;28;20437;-77
2022/03/15 00:12:13;;;;;;;7.27;3.77;;;;;;;;;;5017608;28;20053;-77
2022/03/15 00:14:38;;;;;;;6.93;3.60;;;;;;;;;;5013723;28;20313;-77
2022/03/15 00:17:05;;;;;;;5.15;3.38;;;;;;;;;;4996280;28;20026;-77
2022/03/15 00:19:33;;;;;;;9.70;4.18;;;;;;;;;;5013760;28;20537;-77
2022/03/15 00:21:59;;;;;;;7.88;3.70;;;;;;;;;;5013500;28;20037;-77
2022/03/15 00:24:25;;;;;;;8.98;3.42;;;;;;;;;;5013567;28;20030;-77
2022/03/15 00:26:51;;;;;;;7.97;3.80;;;;;;;;;;5013773;28;20024;-77
2022/03/15 00:29:17;;;;;;;6.65;3.85;;;;;;;;;;5013778;28;20248;-77
2022/03/15 00:31:44;;;;;;;7.18;3.58;;;;;;;;;;5013264;28;20033;-77
2022/03/15 00:34:09;;;;;;;5.75;3.35;;;;;;;;;;4996403;28;20065;-77
2022/03/15 00:36:35;;;;;;;7.18;3.70;;;;;;;;;;5014281;28;20061;-77
2022/03/15 00:39:01;;;;;;;9.88;3.63;;;;;;;;;;5013513;28;20079;-77
2022/03/15 00:41:26;;;;;;;8.02;3.70;;;;;;;;;;5013277;28;20101;-77
2022/03/15 00:43:52;;;;;;;6.15;3.58;;;;;;;;;;5014596;28;20103;-78
2022/03/15 00:46:17;;;;;;;6.13;3.85;;;;;;;;;;5015720;28;20423;-77
2022/03/15 00:48:42;;;;;;;5.97;3.78;;;;;;;;;;5017602;28;20092;-77
2022/03/15 00:51:07;;;;;;;6.88;3.75;;;;;;;;;;5017699;28;20026;-77
2022/03/15 00:53:33;;;;;;;7.38;3.72;;;;;;;;;;4999223;28;20026;-77
2022/03/15 00:55:58;;;;;;;8.57;3.90;;;;;;;;;;5017827;28;20057;-77
2022/03/15 00:58:23;;;;;;;8.82;3.65;;;;;;;;;;5017286;28;20498;-78
2022/03/15 01:00:48;;;;;;;7.10;4.25;;;;;;;;;;4999233;28;20022;-77
2022/03/15 01:03:14;;;;;;;10.57;3.83;;;;;;;;;;5000948;28;20079;-78
2022/03/15 01:05:40;;;;;;;7.10;4.00;;;;;;;;;;5017801;28;20052;-78
2022/03/15 01:08:05;;;;;;;7.15;4.13;;;;;;;;;;5017132;28;20026;-77
2022/03/15 01:10:31;;;;;;;8.45;4.10;;;;;;;;;;5013905;28;20061;-78
2022/03/15 01:12:56;;;;;;;7.85;3.95;;;;;;;;;;5016166;28;20026;-77
2022/03/15 01:15:23;;;;;;;7.18;3.72;;;;;;;;;;4999316;28;20026;-77
2022/03/15 01:17:48;;;;;;;6.20;3.50;;;;;;;;;;4999497;28;20030;-77
2022/03/15 01:20:14;;;;;;;5.97;3.42;;;;;;;;;;4999212;28;20032;-77
2022/03/15 01:22:39;;;;;;;6.63;3.85;;;;;;;;;;5016853;28;20022;-77
2022/03/15 01:25:05;;;;;;;6.85;3.60;;;;;;;;;;4999124;28;20025;-77
2022/03/15 01:27:30;;;;;;;6.38;3.70;;;;;;;;;;5016808;28;20025;-77
2022/03/15 01:29:57;;;;;;;7.05;3.72;;;;;;;;;;5016898;28;20394;-77
2022/03/15 01:32:23;;;;;;;6.88;3.75;;;;;;;;;;5016518;28;20080;-77
2022/03/15 01:34:48;;;;;;;6.30;3.33;;;;;;;;;;5016828;28;20025;-77
2022/03/15 01:37:14;;;;;;;6.50;3.60;;;;;;;;;;5020268;28;20459;-77
2022/03/15 01:39:39;;;;;;;8.10;3.78;;;;;;;;;;5016745;28;20022;-77
2022/03/15 01:42:05;;;;;;;7.97;3.78;;;;;;;;;;5016428;28;20467;-77
2022/03/15 01:44:33;;;;;;;5.43;3.47;;;;;;;;;;4999051;28;20022;-77
2022/03/15 01:46:59;;;;;;;6.47;3.17;;;;;;;;;;4999057;28;20550;-77
2022/03/15 01:49:24;;;;;;;6.70;3.80;;;;;;;;;;5016638;28;20166;-77
2022/03/15 01:51:50;;;;;;;6.70;3.50;;;;;;;;;;5016322;28;20394;-77
2022/03/15 01:54:15;;;;;;;7.22;3.75;;;;;;;;;;5016397;28;20025;-77
2022/03/15 01:56:42;;;;;;;6.22;4.03;;;;;;;;;;5016218;28;20022;-77
2022/03/15 01:59:12;;;;;;;8.13;3.33;;;;;;;;;;5017615;28;20469;-77
2022/03/15 02:01:39;;;;;;;6.50;3.92;;;;;;;;;;5016316;28;20037;-77
2022/03/15 02:04:05;;;;;;;5.78;3.20;;;;;;;;;;5017083;28;20057;-77
2022/03/15 02:06:30;;;;;;;7.93;3.33;;;;;;;;;;5017078;28;20398;-78
2022/03/15 02:08:56;;;;;;;7.35;3.45;;;;;;;;;;5003189;28;20395;-77
2022/03/15 02:11:21;;;;;;;6.07;3.58;;;;;;;;;;5016395;28;20033;-77
2022/03/15 02:13:46;;;;;;;7.15;3.50;;;;;;;;;;5016715;28;20021;-78
2022/03/15 02:16:12;;;;;;;7.32;3.45;;;;;;;;;;5016106;28;20034;-77
2022/03/15 02:18:37;;;;;;;7.13;4.00;;;;;;;;;;5016653;28;20427;-77
2022/03/15 02:21:02;;;;;;;8.60;3.80;;;;;;;;;;5016118;28;20026;-77
2022/03/15 02:23:28;;;;;;;7.25;3.85;;;;;;;;;;5015241;28;20354;-77
2022/03/15 02:25:53;;;;;;;7.55;3.78;;;;;;;;;;5016319;28;20061;-77
2022/03/15 02:28:19;;;;;;;5.88;3.40;;;;;;;;;;5016893;28;20052;-77
2022/03/15 02:30:45;;;;;;;6.05;3.63;;;;;;;;;;5017104;28;20033;-77
2022/03/15 02:33:10;;;;;;;7.53;3.63;;;;;;;;;;5016177;28;20032;-77
2022/03/15 02:35:36;;;;;;;7.22;3.80;;;;;;;;;;5016057;28;20022;-77
2022/03/15 02:38:01;;;;;;;6.57;3.58;;;;;;;;;;5017794;28;20060;-77
2022/03/15 02:40:26;;;;;;;7.03;3.63;;;;;;;;;;5016984;28;20101;-77
2022/03/15 02:42:52;;;;;;;6.00;3.72;;;;;;;;;;4998118;28;20029;-77
2022/03/15 02:45:17;;;;;;;8.40;3.77;;;;;;;;;;5015796;28;20017;-78
2022/03/15 02:47:45;;;;;;;5.60;3.70;;;;;;;;;;5018162;28;20266;-77
2022/03/15 02:50:11;;;;;;;8.15;3.80;;;;;;;;;;5020971;28;20041;-78
2022/03/15 02:52:37;;;;;;;5.55;3.58;;;;;;;;;;5017365;28;20026;-77
2022/03/15 02:55:03;;;;;;;7.47;3.67;;;;;;;;;;5000109;28;20028;-76
2022/03/15 02:57:29;;;;;;;7.68;3.67;;;;;;;;;;5015468;28;20030;-77
2022/03/15 02:59:55;;;;;;;6.30;3.47;;;;;;;;;;4997650;28;20032;-77
2022/03/15 03:02:20;;;;;;;8.80;3.47;;;;;;;;;;5016931;28;20022;-77
2022/03/15 03:04:45;;;;;;;3.95;3.13;;;;;;;;;;5016591;28;20026;-77
2022/03/15 03:07:12;;;;;;;6.45;3.70;;;;;;;;;;5015489;28;20033;-77
2022/03/15 03:09:37;;;;;;;8.10;3.72;;;;;;;;;;5015816;28;20030;-77
2022/03/15 03:12:03;;;;;;;6.63;3.50;;;;;;;;;;5018971;28;20402;-77
2022/03/15 03:14:28;;;;;;;6.72;3.35;;;;;;;;;;4998421;28;20021;-78
2022/03/15 03:16:53;;;;;;;6.35;3.33;;;;;;;;;;5016487;28;20030;-77
2022/03/15 03:19:19;;;;;;;6.18;3.40;;;;;;;;;;5018916;28;20466;-78
2022/03/15 03:21:45;;;;;;;6.45;3.67;;;;;;;;;;5016472;28;20022;-77
2022/03/15 03:24:10;;;;;;;7.60;4.07;;;;;;;;;;5018331;28;20052;-78
2022/03/15 03:26:40;;;;;;;8.57;3.65;;;;;;;;;;5018966;28;20048;-77
2022/03/15 03:29:10;;;;;;;5.88;3.72;;;;;;;;;;4998603;28;20167;-78
2022/03/15 03:31:40;;;;;;;4.97;3.20;;;;;;;;;;4999354;28;20025;-78
2022/03/15 03:34:06;;;;;;;5.90;3.60;;;;;;;;;;4998509;28;20060;-77
2022/03/15 03:36:36;;;;;;;7.05;3.67;;;;;;;;;;5019519;28;20057;-78
2022/03/15 03:39:02;;;;;;;6.45;3.92;;;;;;;;;;5000396;28;20037;-77
2022/03/15 03:41:27;;;;;;;6.93;3.85;;;;;;;;;;5016769;28;20022;-77
2022/03/15 03:43:52;;;;;;;6.10;3.40;;;;;;;;;;5017553;28;20113;-77
2022/03/15 03:46:18;;;;;;;7.60;4.05;;;;;;;;;;5015514;28;20022;-77
2022/03/15 03:48:44;;;;;;;6.93;3.88;;;;;;;;;;5015479;28;20109;-78
2022/03/15 03:51:09;;;;;;;9.25;3.75;;;;;;;;;;4997768;28;20030;-77
2022/03/15 03:53:34;;;;;;;8.60;3.65;;;;;;;;;;4997249;28;20065;-78
2022/03/15 03:56:00;;;;;;;5.32;3.42;;;;;;;;;;5015602;28;20057;-77
2022/03/15 03:58:25;;;;;;;6.22;3.28;;;;;;;;;;4997410;28;20068;-77
2022/03/15 04:00:50;;;;;;;6.63;3.55;;;;;;;;;;4997218;28;20049;-78
2022/03/15 04:03:17;;;;;;;8.18;4.35;;;;;;;;;;5015129;28;20436;-77
2022/03/15 04:05:44;;;;;;;7.20;4.40;;;;;;;;;;5014719;28;20030;-77
2022/03/15 04:08:10;;;;;;;9.75;4.50;;;;;;;;;;5014891;28;20415;-77
2022/03/15 04:10:36;;;;;;;7.93;3.60;;;;;;;;;;5014683;28;20048;-77
2022/03/15 04:13:02;;;;;;;5.25;3.53;;;;;;;;;;4997563;28;20479;-77
2022/03/15 04:15:27;;;;;;;7.07;3.95;;;;;;;;;;5014852;28;20109;-78
2022/03/15 04:17:53;;;;;;;6.72;3.50;;;;;;;;;;5015398;28;20064;-77
2022/03/15 04:20:18;;;;;;;6.38;3.53;;;;;;;;;;4998097;28;20025;-78
2022/03/15 04:22:44;;;;;;;7.57;3.63;;;;;;;;;;4997402;28;20018;-77
2022/03/15 04:25:10;;;;;;;4.30;2.90;;;;;;;;;;5014720;28;20026;-78
2022/03/15 04:27:36;;;;;;;6.43;3.72;;;;;;;;;;4998812;28;20022;-78
2022/03/15 04:30:02;;;;;;;6.90;3.33;;;;;;;;;;4999552;28;20037;-77
2022/03/15 04:32:28;;;;;;;6.97;3.80;;;;;;;;;;5014952;28;20030;-77
2022/03/15 04:34:53;;;;;;;6.63;3.42;;;;;;;;;;5015195;28;20391;-77
2022/03/15 04:37:23;;;;;;;5.55;3.28;;;;;;;;;;5018820;28;20105;-77
2022/03/15 04:39:49;;;;;;;5.88;3.67;;;;;;;;;;5020771;28;20022;-77
2022/03/15 04:42:14;;;;;;;9.25;4.03;;;;;;;;;;5001456;28;20026;-78
2022/03/15 04:44:40;;;;;;;8.32;3.90;;;;;;;;;;5001785;28;20479;-77
2022/03/15 04:47:05;;;;;;;9.35;3.75;;;;;;;;;;5022282;28;20116;-77
2022/03/15 04:49:31;;;;;;;6.00;3.63;;;;;;;;;;5006719;28;20034;-78
2022/03/15 04:51:57;;;;;;;9.68;4.00;;;;;;;;;;5021660;28;20022;-77
2022/03/15 04:54:22;;;;;;;10.23;4.15;;;;;;;;;;5018648;28;20041;-77
2022/03/15 04:56:47;;;;;;;7.22;4.40;;;;;;;;;;5018384;28;20152;-78
2022/03/15 04:59:13;;;;;;;7.82;4.10;;;;;;;;;;5019648;28;20029;-75
2022/03/15 05:01:38;;;;;;;9.45;4.75;;;;;;;;;;5019855;28;20105;-78
2022/03/15 05:04:04;;;;;;;7.00;3.97;;;;;;;;;;5017979;28;20033;-78
2022/03/15 05:06:29;;;;;;;7.38;4.03;;;;;;;;;;5018255;28;20033;-77
2022/03/15 05:08:54;;;;;;;6.40;4.20;;;;;;;;;;5018022;28;20033;-75
2022/03/15 05:11:20;;;;;;;8.45;4.63;;;;;;;;;;5000847;28;20120;-77
2022/03/15 05:13:47;;;;;;;8.50;4.32;;;;;;;;;;5018065;28;20069;-77
2022/03/15 05:16:22;;;;;;;7.65;4.22;;;;;;;;;;5017647;28;20033;-77
2022/03/15 05:18:53;;;;;;;6.93;3.95;;;;;;;;;;5018279;28;20037;-77
2022/03/15 05:21:20;;;;;;;8.65;4.32;;;;;;;;;;5017311;28;20049;-77
2022/03/15 05:23:47;;;;;;;8.10;4.60;;;;;;;;;;5017707;28;20050;-77
2022/03/15 05:26:14;;;;;;;11.05;4.97;;;;;;;;;;5017686;28;20040;-78
2022/03/15 05:28:40;;;;;;;8.63;4.85;;;;;;;;;;5018149;28;20034;-77
2022/03/15 05:31:05;;;;;;;8.25;4.85;;;;;;;;;;5000428;28;20402;-77
2022/03/15 05:33:31;;;;;;;9.82;4.93;;;;;;;;;;5018558;28;20025;-78
2022/03/15 05:35:57;;;;;;;11.55;5.55;;;;;;;;;;5019454;28;20030;-78
2022/03/15 05:38:23;;;;;;;10.57;5.70;;;;;;;;;;5020812;28;20029;-79
2022/03/15 05:40:48;;;;;;;12.18;6.32;;;;;;;;;;5001203;28;20022;-79
2022/03/15 05:43:13;;;;;;;9.48;5.22;;;;;;;;;;5003505;28;20033;-77
2022/03/15 05:45:39;;;;;;;9.57;5.28;;;;;;;;;;5021833;28;20427;-78
2022/03/15 05:48:05;;;;;;;12.32;5.57;;;;;;;;;;5018933;28;20021;-78
2022/03/15 05:50:30;;;;;;;9.63;4.95;;;;;;;;;;5016624;28;20487;-78
2022/03/15 05:52:56;;;;;;;9.85;5.45;;;;;;;;;;5017069;28;20076;-77
2022/03/15 05:55:21;;;;;;;7.70;4.95;;;;;;;;;;5018235;28;20483;-77
2022/03/15 05:57:47;;;;;;;12.35;5.43;;;;;;;;;;5015991;28;20029;-76
2022/03/15 06:00:12;;;;;;;17.10;8.65;;;;;;;;;;5017655;28;20021;-78
2022/03/15 06:02:38;;;;;;;11.93;6.25;;;;;;;;;;5018168;28;20021;-77
2022/03/15 06:05:03;;;;;;;9.55;5.25;;;;;;;;;;5001089;28;20061;-78
2022/03/15 06:07:29;;;;;;;10.75;5.47;;;;;;;;;;5001592;28;20040;-77
2022/03/15 06:09:55;;;;;;;11.05;5.43;;;;;;;;;;5016663;28;20550;-77
2022/03/15 06:12:20;;;;;;;10.07;5.38;;;;;;;;;;5020102;28;20049;-77
2022/03/15 06:14:46;;;;;;;9.55;5.65;;;;;;;;;;4999659;28;20430;-77
2022/03/15 06:17:11;;;;;;;11.52;5.55;;;;;;;;;;4999846;28;20497;-77
2022/03/15 06:19:37;;;;;;;11.75;5.70;;;;;;;;;;5018014;28;20048;-77
2022/03/15 06:22:03;;;;;;;10.65;5.60;;;;;;;;;;5017572;28;20045;-77
2022/03/15 06:24:29;;;;;;;11.43;5.93;;;;;;;;;;5016819;28;20391;-78
2022/03/15 06:26:55;;;;;;;10.98;6.25;;;;;;;;;;5016057;28;20387;-77
2022/03/15 06:29:20;;;;;;;12.23;6.20;;;;;;;;;;5016440;28;20025;-77
2022/03/15 06:31:45;;;;;;;12.82;6.68;;;;;;;;;;5021122;28;20030;-77
2022/03/15 06:34:10;;;;;;;10.00;5.38;;;;;;;;;;5020667;28;20092;-78
2022/03/15 06:36:36;;;;;;;10.85;6.32;;;;;;;;;;5020468;28;20487;-78
2022/03/15 06:39:04;;;;;;;10.32;5.82;;;;;;;;;;5002972;28;20463;-77
2022/03/15 06:41:30;;;;;;;10.45;5.47;;;;;;;;;;5001432;28;20395;-77
2022/03/15 06:43:55;;;;;;;10.95;5.80;;;;;;;;;;5019975;28;20028;-78
2022/03/15 06:46:20;;;;;;;9.20;5.38;;;;;;;;;;5019637;28;20425;-78
2022/03/15 06:48:46;;;;;;;8.95;5.57;;;;;;;;;;5020593;28;20030;-78
2022/03/15 06:51:12;;;;;;;9.32;5.32;;;;;;;;;;5021950;28;20483;-78
2022/03/15 06:53:37;;;;;;;11.52;5.63;;;;;;;;;;5021697;28;20022;-77
2022/03/15 06:56:02;;;;;;;9.98;5.30;;;;;;;;;;5004534;28;20057;-78
2022/03/15 06:58:28;;;;;;;12.27;5.75;;;;;;;;;;5021793;28;20490;-77
2022/03/15 07:00:55;;;;;;;10.48;5.32;;;;;;;;;;5021720;28;20034;-76
2022/03/15 07:03:20;;;;;;;10.32;5.35;;;;;;;;;;5020856;28;20018;-78
2022/03/15 07:05:45;;;;;;;7.70;4.93;;;;;;;;;;5016325;28;20033;-78
2022/03/15 07:08:11;;;;;;;10.27;5.47;;;;;;;;;;4997857;28;20052;-77
2022/03/15 07:10:36;;;;;;;10.73;5.72;;;;;;;;;;5015611;28;20255;-78
2022/03/15 07:13:01;;;;;;;11.05;5.53;;;;;;;;;;5015873;28;20018;-78
2022/03/15 07:15:27;;;;;;;9.48;5.93;;;;;;;;;;5016042;28;20022;-77
2022/03/15 07:17:55;;;;;;;10.10;5.03;;;;;;;;;;5016551;28;20105;-77
2022/03/15 07:20:22;;;;;;;11.23;5.70;;;;;;;;;;4998451;28;20018;-78
2022/03/15 07:22:48;;;;;;;10.50;5.05;;;;;;;;;;5015908;28;20398;-78
2022/03/15 07:25:13;;;;;;;10.63;5.70;;;;;;;;;;4998226;28;20032;-77
2022/03/15 07:27:39;;;;;;;10.45;5.65;;;;;;;;;;5018215;28;20085;-78
2022/03/15 07:30:05;;;;;;;9.85;5.68;;;;;;;;;;5022494;28;20068;-78
2022/03/15 07:32:30;;;;;;;9.52;5.50;;;;;;;;;;5020875;28;20022;-78
2022/03/15 07:34:56;;;;;;;10.55;5.57;;;;;;;;;;5000949;28;20113;-77
2022/03/15 07:37:21;;;;;;;11.77;5.80;;;;;;;;;;5017443;28;20479;-77
2022/03/15 07:39:46;;;;;;;9.18;5.53;;;;;;;;;;5019372;28;20482;-77
2022/03/15 07:42:12;;;;;;;10.70;5.53;;;;;;;;;;5017843;28;20022;-77
2022/03/15 07:44:39;;;;;;;11.27;5.65;;;;;;;;;;5016307;28;20032;-77
2022/03/15 07:47:04;;;;;;;11.55;5.47;;;;;;;;;;5018001;28;20057;-78
2022/03/15 07:49:29;;;;;;;10.27;5.47;;;;;;;;;;5023156;28;20048;-78
2022/03/15 07:51:54;;;;;;;11.02;5.63;;;;;;;;;;5022967;28;20030;-78
2022/03/15 07:54:20;;;;;;;9.65;5.35;;;;;;;;;;5017602;28;20057;-77
2022/03/15 07:56:45;;;;;;;11.82;5.78;;;;;;;;;;5015271;28;20037;-78
2022/03/15 07:59:11;;;;;;;8.38;5.45;;;;;;;;;;5015537;28;20475;-77
2022/03/15 08:01:37;;;;;;;10.80;5.43;;;;;;;;;;5015101;28;20026;-77
2022/03/15 08:04:02;;;;;;;10.18;5.60;;;;;;;;;;4997257;28;20402;-78
2022/03/15 08:06:29;;;;;;;10.85;5.28;;;;;;;;;;5014761;28;20105;-78
2022/03/15 08:08:57;;;;;;;9.10;5.03;;;;;;;;;;5014775;28;20026;-77
2022/03/15 08:11:23;;;;;;;12.57;5.97;;;;;;;;;;5016588;28;20026;-78
2022/03/15 08:13:49;;;;;;;11.20;5.75;;;;;;;;;;5017326;28;20026;-77
2022/03/15 08:16:15;;;;;;;9.05;5.28;;;;;;;;;;5017436;28;20076;-78
2022/03/15 08:18:40;;;;;;;10.52;5.40;;;;;;;;;;5018082;28;20021;-78
2022/03/15 08:21:05;;;;;;;11.20;5.33;;;;;;;;;;4999959;28;20045;-78
2022/03/15 08:23:31;;;;;;;8.45;5.00;;;;;;;;;;5018756;28;20256;-78
2022/03/15 08:25:58;;;;;;;12.60;5.60;;;;;;;;;;5016609;28;20025;-77
2022/03/15 08:28:24;;;;;;;10.07;5.47;;;;;;;;;;5014066;28;20029;-77
2022/03/15 08:30:51;;;;;;;11.57;5.57;;;;;;;;;;5014184;28;20116;-76
2022/03/15 08:33:17;;;;;;;10.05;6.15;;;;;;;;;;4995838;28;20402;-77
2022/03/15 08:35:42;;;;;;;9.93;5.25;;;;;;;;;;4995710;28;20154;-77
2022/03/15 08:38:08;;;;;;;9.68;5.32;;;;;;;;;;5013736;28;20022;-77
2022/03/15 08:40:34;;;;;;;11.60;5.80;;;;;;;;;;4995543;28;20044;-77
2022/03/15 08:43:00;;;;;;;13.23;5.97;;;;;;;;;;5013208;28;20033;-77
2022/03/15 08:45:25;;;;;;;10.30;5.50;;;;;;;;;;4995464;28;20529;-77
2022/03/15 08:47:52;;;;;;;20.20;7.72;;;;;;;;;;4995620;28;20058;-77
2022/03/15 08:50:18;;;;;;;11.65;5.60;;;;;;;;;;5013087;28;20064;-77
2022/03/15 08:52:44;;;;;;;11.80;5.70;;;;;;;;;;4995404;28;20517;-77
2022/03/15 08:55:09;;;;;;;13.20;5.97;;;;;;;;;;5013068;28;20533;-76
2022/03/15 08:57:35;;;;;;;12.70;7.05;;;;;;;;;;5013379;28;20034;-77
2022/03/15 09:00:00;;;;;;;12.10;5.30;;;;;;;;;;5013259;28;20109;-76
2022/03/15 09:02:25;;;;;;;9.63;5.47;;;;;;;;;;5012918;28;20026;-76
2022/03/15 09:04:50;;;;;;;14.35;6.78;;;;;;;;;;5013198;28;20034;-77
2022/03/15 09:07:16;;;;;;;10.63;5.47;;;;;;;;;;5013097;28;20041;-77
2022/03/15 09:09:41;;;;;;;9.95;5.28;;;;;;;;;;4995845;28;20037;-76
2022/03/15 09:12:07;;;;;;;10.13;5.47;;;;;;;;;;5013640;28;20026;-77
2022/03/15 09:14:32;;;;;;;10.05;5.15;;;;;;;;;;5013716;28;20029;-76
2022/03/15 09:16:58;;;;;;;8.93;5.22;;;;;;;;;;4995634;28;20045;-77
2022/03/15 09:19:24;;;;;;;9.70;5.30;;;;;;;;;;5013173;28;20383;-77
2022/03/15 09:21:50;;;;;;;11.05;5.55;;;;;;;;;;5013166;28;20018;-76
2022/03/15 09:24:15;;;;;;;11.65;5.43;;;;;;;;;;4995829;28;20026;-77
2022/03/15 09:26:42;;;;;;;10.98;5.22;;;;;;;;;;5013366;28;20037;-77
2022/03/15 09:29:08;;;;;;;11.10;5.55;;;;;;;;;;4996140;28;20109;-77
2022/03/15 09:31:35;;;;;;;11.52;5.45;;;;;;;;;;5014040;28;20109;-77
2022/03/15 09:34:00;;;;;;;10.57;5.15;;;;;;;;;;4999026;28;20394;-76
2022/03/15 09:36:25;;;;;;;8.48;5.15;;;;;;;;;;5017879;28;20022;-77
2022/03/15 09:38:51;;;;;;;12.07;4.97;;;;;;;;;;5001317;28;20022;-77
2022/03/15 09:41:19;;;;;;;11.77;5.25;;;;;;;;;;5018845;28;20026;-77
2022/03/15 09:43:45;;;;;;;10.55;5.30;;;;;;;;;;5018128;28;20108;-77
2022/03/15 09:46:12;;;;;;;8.38;5.03;;;;;;;;;;5019045;28;20375;-77
2022/03/15 09:48:39;;;;;;;10.68;5.07;;;;;;;;;;5019734;28;20154;-77
2022/03/15 09:51:05;;;;;;;7.80;4.88;;;;;;;;;;5018644;28;20601;-77
2022/03/15 09:53:34;;;;;;;9.18;5.43;;;;;;;;;;5018388;28;20087;-77
2022/03/15 09:56:00;;;;;;;11.32;5.20;;;;;;;;;;5019917;28;20446;-77
2022/03/15 09:58:25;;;;;;;9.55;5.28;;;;;;;;;;4998767;28;20051;-77
2022/03/15 10:00:55;;;;;;;9.15;5.68;;;;;;;;;;4999024;28;20037;-77
2022/03/15 10:03:21;;;;;;;10.02;4.78;;;;;;;;;;5018427;28;20398;-77
2022/03/15 10:05:49;;;;;;;10.00;4.90;;;;;;;;;;4999405;28;20026;-77
2022/03/15 10:08:15;;;;;;;10.35;4.78;;;;;;;;;;5019056;28;20032;-77
2022/03/15 10:10:41;;;;;;;7.50;4.97;;;;;;;;;;5017588;28;20028;-77
2022/03/15 10:13:07;;;;;;;9.10;4.75;;;;;;;;;;5018205;28;20108;-77
2022/03/15 10:15:32;;;;;;;9.95;4.38;;;;;;;;;;5017555;28;20120;-77
2022/03/15 10:18:04;;;;;;;9.38;4.40;;;;;;;;;;5016125;28;20029;-77
2022/03/15 10:20:37;;;;;;;10.68;4.35;;;;;;;;;;5016472;28;20159;-77
2022/03/15 10:23:03;;;;;;;8.88;4.70;;;;;;;;;;5017070;28;20026;-77
2022/03/15 10:25:30;;;;;;;8.45;4.47;;;;;;;;;;5016813;28;20033;-79
2022/03/15 10:28:06;;;;;;;9.27;4.35;;;;;;;;;;5018265;28;20025;-78
2022/03/15 10:30:32;;;;;;;8.80;4.22;;;;;;;;;;5019208;28;20022;-78
2022/03/15 10:32:58;;;;;;;11.40;4.38;;;;;;;;;;5017407;28;20033;-77
2022/03/15 10:35:25;;;;;;;8.98;4.60;;;;;;;;;;5018497;28;20502;-77
2022/03/15 10:37:55;;;;;;;14.38;4.35;;;;;;;;;;5017196;28;20036;-79
2022/03/15 10:40:35;;;;;;;8.95;4.50;;;;;;;;;;5016277;28;20034;-77
2022/03/15 10:43:06;;;;;;;7.57;4.05;;;;;;;;;;5017058;28;20033;-77
2022/03/15 10:45:34;;;;;;;8.18;4.10;;;;;;;;;;5014823;28;20029;-76
2022/03/15 10:47:59;;;;;;;8.95;4.03;;;;;;;;;;5000168;28;20026;-77
2022/03/15 10:50:25;;;;;;;8.23;4.13;;;;;;;;;;5016404;28;20033;-78
2022/03/15 10:52:51;;;;;;;9.85;4.18;;;;;;;;;;5016326;28;20327;-77
2022/03/15 10:55:22;;;;;;;10.13;4.07;;;;;;;;;;4999089;28;20021;-76
2022/03/15 10:57:59;;;;;;;9.68;4.60;;;;;;;;;;5016737;28;20022;-77
2022/03/15 11:00:28;;;;;;;9.13;4.30;;;;;;;;;;5016596;28;20121;-77
2022/03/15 11:02:55;;;;;;;9.48;4.40;;;;;;;;;;4997822;28;20073;-77
2022/03/15 11:05:27;;;;;;;8.60;3.97;;;;;;;;;;4999406;28;20022;-77
2022/03/15 11:07:53;;;;;;;9.75;4.53;;;;;;;;;;5015162;28;20053;-77
2022/03/15 11:10:18;;;;;;;9.05;4.32;;;;;;;;;;5015722;28;20368;-77
2022/03/15 11:13:02;;;;;;;8.27;4.25;;;;;;;;;;5015102;28;20030;-77
2022/03/15 11:15:30;;;;;;;8.52;4.57;;;;;;;;;;4998261;28;20117;-78
2022/03/15 11:18:04;;;;;;;9.38;4.15;;;;;;;;;;4998870;28;20494;-77
2022/03/15 11:20:35;;;;;;;10.88;4.82;;;;;;;;;;5016063;28;20064;-77
2022/03/15 11:23:02;;;;;;;9.60;4.38;;;;;;;;;;5015378;28;20022;-77
2022/03/15 11:25:54;;;;;;;12.13;4.72;;;;;;;;;;5014678;28;20054;-77
2022/03/15 11:28:24;;;;;;;8.68;4.60;;;;;;;;;;4996856;28;20026;-77
2022/03/15 11:30:51;;;;;;;8.82;4.53;;;;;;;;;;5015572;28;20100;-77
2022/03/15 11:33:16;;;;;;;8.10;4.35;;;;;;;;;;5015045;28;20030;-78
2022/03/15 11:35:41;;;;;;;6.80;3.70;;;;;;;;;;5016783;28;20475;-77
2022/03/15 11:38:09;;;;;;;7.20;3.80;;;;;;;;;;5015013;28;20057;-77
2022/03/15 11:40:35;;;;;;;7.65;4.10;;;;;;;;;;5015317;28;20032;-78
2022/03/15 11:43:34;;;;;;;7.38;4.05;;;;;;;;;;5016631;28;20097;-78
2022/03/15 11:46:11;;;;;;;10.10;4.13;;;;;;;;;;4999410;28;20025;-77
2022/03/15 11:48:51;;;;;;;10.50;4.05;;;;;;;;;;5014597;28;20030;-78
2022/03/15 11:51:31;;;;;;;7.50;3.90;;;;;;;;;;5015355;28;20022;-76
2022/03/15 11:54:17;;;;;;;7.53;4.43;;;;;;;;;;5015148;28;20096;-77
2022/03/15 11:56:48;;;;;;;10.35;3.83;;;;;;;;;;5013572;28;20036;-77
2022/03/15 11:59:14;;;;;;;11.80;5.72;;;;;;;;;;4996888;28;20029;-77
2022/03/15 12:01:51;;;;;;;9.32;4.40;;;;;;;;;;5016040;28;20053;-76
2022/03/15 12:04:21;;;;;;;7.97;3.33;;;;;;;;;;4998557;28;20491;-78
2022/03/15 12:06:50;;;;;;;11.95;4.13;;;;;;;;;;5015089;28;20030;-78
2022/03/15 12:09:20;;;;;;;6.53;3.72;;;;;;;;;;4997960;28;20068;-77
2022/03/15 12:11:46;;;;;;;6.50;3.53;;;;;;;;;;5015366;28;20030;-77
2022/03/15 12:14:17;;;;;;;12.40;4.57;;;;;;;;;;5014567;28;20088;-78
2022/03/15 12:16:47;;;;;;;9.32;4.13;;;;;;;;;;5015777;28;20445;-77
2022/03/15 12:22:00;;;;;;;8.43;4.22;;;;;;;;;;5018651;28;20125;-76
2022/03/15 12:24:39;;;;;;;7.50;3.80;;;;;;;;;;5015101;28;20029;-77
2022/03/15 12:27:10;;;;;;;10.35;4.03;;;;;;;;;;5013857;28;20547;-77
2022/03/15 12:29:39;;;;;;;5.97;3.83;;;;;;;;;;4996387;28;20030;-77
2022/03/15 12:32:12;;;;;;;8.75;3.85;;;;;;;;;;5013585;28;20034;-77
2022/03/15 12:34:41;;;;;;;8.02;4.13;;;;;;;;;;4996330;28;20030;-77
2022/03/15 12:37:06;;;;;;;9.50;3.92;;;;;;;;;;5014044;28;20214;-77
2022/03/15 12:39:33;;;;;;;9.15;3.70;;;;;;;;;;5013650;28;20479;-77
2022/03/15 12:42:12;;;;;;;6.63;3.38;;;;;;;;;;4997136;28;20021;-78
2022/03/15 12:44:39;;;;;;;7.15;3.78;;;;;;;;;;5014480;28;20109;-77
2022/03/15 12:47:06;;;;;;;8.88;3.50;;;;;;;;;;5013444;28;20089;-77
2022/03/15 12:49:31;;;;;;;11.52;3.70;;;;;;;;;;5013791;28;20105;-77
2022/03/15 12:51:56;;;;;;;9.93;3.78;;;;;;;;;;4995690;28;20121;-77
2022/03/15 12:54:25;;;;;;;9.52;3.85;;;;;;;;;;5014081;28;20022;-77
2022/03/15 12:56:51;;;;;;;8.82;4.03;;;;;;;;;;4996266;28;20026;-77
2022/03/15 12:59:24;;;;;;;6.63;3.78;;;;;;;;;;5013566;28;20026;-76
2022/03/15 13:01:50;;;;;;;10.40;4.03;;;;;;;;;;5013756;28;20026;-77
2022/03/15 13:04:18;;;;;;;7.75;3.53;;;;;;;;;;5015710;28;20117;-77
2022/03/15 13:06:44;;;;;;;10.60;3.38;;;;;;;;;;4996378;28;20060;-77
2022/03/15 13:09:10;;;;;;;10.60;4.00;;;;;;;;;;5000021;28;20029;-77
2022/03/15 13:11:46;;;;;;;7.65;3.88;;;;;;;;;;5000289;28;20441;-77
2022/03/15 13:14:12;;;;;;;7.72;3.72;;;;;;;;;;5018273;28;20034;-77
2022/03/15 13:16:46;;;;;;;9.60;3.97;;;;;;;;;;5019482;28;20033;-78
2022/03/15 13:19:23;;;;;;;6.88;3.70;;;;;;;;;;5001561;28;20026;-78
2022/03/15 13:21:48;;;;;;;8.13;3.60;;;;;;;;;;5020654;28;20085;-79
2022/03/15 13:24:13;;;;;;;12.40;4.10;;;;;;;;;;4999705;28;20069;-77
2022/03/15 13:26:39;;;;;;;7.30;4.00;;;;;;;;;;5017261;28;20255;-77
2022/03/15 13:29:07;;;;;;;10.40;3.72;;;;;;;;;;5017813;28;20471;-77
2022/03/15 13:31:32;;;;;;;7.82;3.70;;;;;;;;;;5020292;28;20073;-76
2022/03/15 13:33:58;;;;;;;9.38;3.75;;;;;;;;;;5017066;28;20029;-76
2022/03/15 13:36:31;;;;;;;9.65;4.00;;;;;;;;;;5017056;28;20159;-77
2022/03/15 13:38:59;;;;;;;10.73;3.75;;;;;;;;;;5016815;28;20394;-77
2022/03/15 13:41:27;;;;;;;6.55;3.45;;;;;;;;;;4998942;28;20026;-77
2022/03/15 13:43:58;;;;;;;8.38;3.75;;;;;;;;;;4999236;28;20030;-77
2022/03/15 13:46:28;;;;;;;10.20;3.75;;;;;;;;;;4999600;28;20498;-77
2022/03/15 13:48:53;;;;;;;7.93;3.90;;;;;;;;;;5017290;28;20033;-77
2022/03/15 13:51:26;;;;;;;7.50;3.90;;;;;;;;;;5016259;28;20471;-77
2022/03/15 13:53:53;;;;;;;10.27;3.58;;;;;;;;;;5017759;28;20049;-77
2022/03/15 13:56:20;;;;;;;7.55;3.58;;;;;;;;;;5016639;28;20033;-77
2022/03/15 13:58:56;;;;;;;7.72;3.75;;;;;;;;;;5019091;28;20026;-78
2022/03/15 14:01:21;;;;;;;6.72;3.47;;;;;;;;;;5019911;28;20017;-77
2022/03/15 14:03:47;;;;;;;7.13;3.78;;;;;;;;;;5016468;28;20495;-78
2022/03/15 14:06:12;;;;;;;9.65;4.15;;;;;;;;;;5016858;28;20494;-77
2022/03/15 14:08:47;;;;;;;9.90;3.83;;;;;;;;;;5016790;28;20022;-77
2022/03/15 14:11:13;;;;;;;8.38;3.88;;;;;;;;;;5017098;28;20029;-78
2022/03/15 14:13:40;;;;;;;6.95;3.60;;;;;;;;;;5019037;28;20403;-78
2022/03/15 14:16:08;;;;;;;9.77;3.40;;;;;;;;;;5016133;28;20026;-77
2022/03/15 14:18:34;;;;;;;7.07;3.58;;;;;;;;;;5016002;28;20402;-78
2022/03/15 14:21:00;;;;;;;10.57;3.70;;;;;;;;;;5015766;28;20538;-76
2022/03/15 14:23:27;;;;;;;8.00;4.03;;;;;;;;;;5016066;28;20026;-78
2022/03/15 14:26:00;;;;;;;10.25;4.25;;;;;;;;;;5015785;28;20030;-77
2022/03/15 14:28:26;;;;;;;10.30;4.65;;;;;;;;;;4998504;28;20021;-77
2022/03/15 14:31:01;;;;;;;12.95;4.75;;;;;;;;;;4998319;28;20029;-78
2022/03/15 14:33:26;;;;;;;8.43;4.15;;;;;;;;;;5016350;28;20049;-75
2022/03/15 14:35:59;;;;;;;8.63;3.70;;;;;;;;;;5015718;28;20049;-77
2022/03/15 14:38:25;;;;;;;5.95;3.50;;;;;;;;;;5016080;28;20483;-77